Time,TemperatureF,DewpointF,PressureIn,WindDirection,WindDirectionDegrees,WindSpeedMPH,WindSpeedGustMPH,Humidity,HourlyPrecipIn,Conditions,Clouds,dailyrainin,SolarRadiationWatts/m^2,SoftwareType,DateUTC
2014-08-27 00:01:00,72.7,63.5,30.17,NW,315,1.2,0.0,73,0.00,CLR,,0.00,0.0,WeatherDisplay:10.37,2014-08-27 04:01:00,
2014-08-27 00:02:00,72.7,63.5,30.16,NW,315,1.2,0.0,73,0.00,CLR,,0.00,0.0,WeatherDisplay:10.37,2014-08-27 04:02:00,
2014-08-27 00:03:00,72.7,63.5,30.17,NW,315,1.2,0.0,73,0.00,CLR,,0.00,0.0,WeatherDisplay:10.37,2014-08-27 04:03:00,
2014-08-27 00:05:00,72.7,63.5,30.17,NW,315,1.2,0.0,73,0.00,CLR,,0.00,0.0,WeatherDisplay:10.37,2014-08-27 04:05:00,
2014-08-27 00:10:00,72.1,63.4,30.17,NW,315,1.2,0.0,74,0.00,CLR,,0.00,0.0,WeatherDisplay:10.37,2014-08-27 04:10:00,
2014-08-27 00:14:00,72.0,63.6,30.16,South,180,1.2,0.0,75,0.00,CLR,,0.00,0.0,WeatherDisplay:10.37,2014-08-27 04:14:00,
2014-08-27 00:19:00,72.0,63.6,30.17,SE,135,1.2,0.0,75,0.00,CLR,,0.00,0.0,WeatherDisplay:10.37,2014-08-27 04:19:00,
2014-08-27 00:24:00,71.8,63.0,30.17,SE,135,1.2,0.0,74,0.00,CLR,,0.00,0.0,WeatherDisplay:10.37,2014-08-27 04:24:00,
2014-08-27 00:29:00,71.8,63.0,30.16,SW,225,1.2,0.0,74,0.00,CLR,,0.00,0.0,WeatherDisplay:10.37,2014-08-27 04:29:00,
2014-08-27 00:34:00,71.6,62.9,30.16,SW,225,0.0,0.0,74,0.00,CLR,,0.00,0.0,WeatherDisplay:10.37,2014-08-27 04:34:00,
2014-08-27 00:39:00,71.6,63.3,30.16,SE,135,0.0,0.0,75,0.00,CLR,,0.00,0.0,WeatherDisplay:10.37,2014-08-27 04:39:00,
2014-08-27 00:44:00,71.4,62.7,30.17,South,180,1.2,0.0,74,0.00,CLR,,0.00,0.0,WeatherDisplay:10.37,2014-08-27 04:44:00,
2014-08-27 00:49:00,71.4,62.7,30.17,West,270,0.0,0.0,74,0.00,CLR,,0.00,0.0,WeatherDisplay:10.37,2014-08-27 04:49:00,
2014-08-27 00:54:00,71.4,62.7,30.17,South,180,1.2,0.0,74,0.00,CLR,,0.00,0.0,WeatherDisplay:10.37,2014-08-27 04:54:00,
2014-08-27 00:59:00,71.4,62.7,30.17,SE,135,1.2,0.0,74,0.00,CLR,,0.00,0.0,WeatherDisplay:10.37,2014-08-27 04:59:00,
2014-08-27 01:04:00,71.4,62.3,30.17,SE,135,0.0,0.0,73,0.00,CLR,,0.00,0.0,WeatherDisplay:10.37,2014-08-27 05:04:00,
2014-08-27 01:09:00,71.4,62.7,30.17,West,270,1.2,0.0,74,0.00,CLR,,0.00,0.0,WeatherDisplay:10.37,2014-08-27 05:09:00,
2014-08-27 01:14:00,71.2,62.5,30.17,SW,225,0.0,0.0,74,0.00,CLR,,0.00,0.0,WeatherDisplay:10.37,2014-08-27 05:14:00,
2014-08-27 01:19:00,71.2,62.5,30.17,SW,225,1.2,1.2,74,0.00,CLR,,0.00,0.0,WeatherDisplay:10.37,2014-08-27 05:19:00,
2014-08-27 01:24:00,71.4,62.3,30.17,SW,225,2.3,0.0,73,0.00,CLR,,0.00,0.0,WeatherDisplay:10.37,2014-08-27 05:24:00,
2014-08-27 01:29:00,71.4,62.3,30.17,South,180,1.2,0.0,73,0.00,CLR,,0.00,0.0,WeatherDisplay:10.37,2014-08-27 05:29:00,
2014-08-27 01:34:00,71.6,62.1,30.17,SW,225,1.2,0.0,72,0.00,CLR,,0.00,0.0,WeatherDisplay:10.37,2014-08-27 05:34:00,
2014-08-27 01:39:00,71.8,62.3,30.17,NW,315,2.3,0.0,72,0.00,CLR,,0.00,0.0,WeatherDisplay:10.37,2014-08-27 05:39:00,
2014-08-27 01:44:00,71.8,61.9,30.17,SE,135,1.2,0.0,71,0.00,CLR,,0.00,0.0,WeatherDisplay:10.37,2014-08-27 05:44:00,
2014-08-27 01:49:00,71.8,61.9,30.17,South,180,1.2,1.2,71,0.00,CLR,,0.00,0.0,WeatherDisplay:10.37,2014-08-27 05:49:00,
2014-08-27 01:54:00,71.8,61.9,30.17,SE,135,1.6,0.0,71,0.00,CLR,,0.00,0.0,WeatherDisplay:10.37,2014-08-27 05:54:00,
2014-08-27 01:59:00,71.6,61.7,30.17,SW,225,1.2,0.0,71,0.00,CLR,,0.00,0.0,WeatherDisplay:10.37,2014-08-27 05:59:00,
2014-08-27 02:04:00,71.6,61.7,30.17,SE,135,3.5,3.5,71,0.00,CLR,,0.00,0.0,WeatherDisplay:10.37,2014-08-27 06:04:00,
2014-08-27 02:09:00,71.2,61.7,30.17,SE,135,3.5,0.0,72,0.00,CLR,,0.00,0.0,WeatherDisplay:10.37,2014-08-27 06:09:00,
2014-08-27 02:14:00,71.1,62.0,30.17,SW,225,2.2,2.2,73,0.00,CLR,,0.00,0.0,WeatherDisplay:10.37,2014-08-27 06:14:00,
2014-08-27 02:19:00,71.1,62.0,30.17,South,180,1.2,1.2,73,0.00,CLR,,0.00,0.0,WeatherDisplay:10.37,2014-08-27 06:19:00,
2014-08-27 02:24:00,71.2,62.1,30.17,West,270,2.3,2.3,73,0.00,CLR,,0.00,0.0,WeatherDisplay:10.37,2014-08-27 06:24:00,
2014-08-27 02:29:00,71.1,62.0,30.17,West,270,1.2,0.0,73,0.00,CLR,,0.00,0.0,WeatherDisplay:10.37,2014-08-27 06:29:00,
2014-08-27 02:34:00,70.9,61.8,30.16,SW,225,1.2,0.0,73,0.00,CLR,,0.00,0.0,WeatherDisplay:10.37,2014-08-27 06:34:00,
2014-08-27 02:39:00,70.9,61.8,30.17,SW,225,1.2,1.2,73,0.00,CLR,,0.00,0.0,WeatherDisplay:10.37,2014-08-27 06:39:00,
2014-08-27 02:44:00,70.9,61.8,30.16,SE,135,1.2,0.0,73,0.00,CLR,,0.00,0.0,WeatherDisplay:10.37,2014-08-27 06:44:00,
2014-08-27 02:49:00,70.9,62.2,30.16,SE,135,1.2,0.0,74,0.00,CLR,,0.00,0.0,WeatherDisplay:10.37,2014-08-27 06:49:00,
2014-08-27 02:54:00,70.5,61.8,30.16,SE,135,1.2,0.0,74,0.00,CLR,,0.00,0.0,WeatherDisplay:10.37,2014-08-27 06:54:00,
2014-08-27 02:59:00,70.3,62.0,30.16,SW,225,1.2,0.0,75,0.00,CLR,,0.00,0.0,WeatherDisplay:10.37,2014-08-27 06:59:00,
2014-08-27 03:04:00,70.3,62.0,30.16,SW,225,3.5,3.5,75,0.00,OVC,,0.00,0.0,WeatherDisplay:10.37,2014-08-27 07:04:00,
2014-08-27 03:09:00,70.5,62.2,30.16,SE,135,3.5,0.0,75,0.00,OVC,,0.00,0.0,WeatherDisplay:10.37,2014-08-27 07:09:00,
2014-08-27 03:14:00,70.3,62.0,30.16,SE,135,1.2,0.0,75,0.00,OVC,,0.00,0.0,WeatherDisplay:10.37,2014-08-27 07:14:00,
2014-08-27 03:19:00,70.3,62.4,30.16,SW,225,2.3,2.3,76,0.00,OVC,,0.00,0.0,WeatherDisplay:10.37,2014-08-27 07:19:00,
2014-08-27 03:24:00,70.5,62.2,30.16,West,270,1.2,1.2,75,0.00,OVC,,0.00,0.0,WeatherDisplay:10.37,2014-08-27 07:24:00,
2014-08-27 03:29:00,70.9,62.2,30.16,WSW,248,3.5,3.8,74,0.00,OVC,,0.00,0.0,WeatherDisplay:10.37,2014-08-27 07:29:00,
2014-08-27 03:34:00,71.2,62.1,30.15,SW,225,1.2,0.0,73,0.00,OVC,,0.00,0.0,WeatherDisplay:10.37,2014-08-27 07:34:00,
2014-08-27 03:39:00,71.1,61.6,30.15,SW,225,3.5,3.5,72,0.00,OVC,,0.00,0.0,WeatherDisplay:10.37,2014-08-27 07:39:00,
2014-08-27 03:44:00,71.2,61.4,30.15,SW,225,2.3,2.3,71,0.00,OVC,,0.00,0.0,WeatherDisplay:10.37,2014-08-27 07:44:00,
2014-08-27 03:49:00,71.4,61.5,30.15,SW,225,4.6,4.6,71,0.00,OVC,,0.00,0.0,WeatherDisplay:10.37,2014-08-27 07:49:00,
2014-08-27 03:54:00,71.6,61.3,30.15,West,270,4.6,4.6,70,0.00,OVC,,0.00,0.0,WeatherDisplay:10.37,2014-08-27 07:54:00,
2014-08-27 03:59:00,71.6,61.3,30.15,West,270,3.5,3.5,70,0.00,OVC,,0.00,0.0,WeatherDisplay:10.37,2014-08-27 07:59:00,
2014-08-27 04:04:00,71.6,61.3,30.15,SW,225,5.8,5.8,70,0.00,OVC,,0.00,0.0,WeatherDisplay:10.37,2014-08-27 08:04:00,
2014-08-27 04:09:00,72.0,61.2,30.15,SW,225,5.8,5.8,69,0.00,OVC,,0.00,0.0,WeatherDisplay:10.37,2014-08-27 08:09:00,
2014-08-27 04:14:00,71.8,61.1,30.15,West,270,3.5,3.5,69,0.00,OVC,,0.00,0.0,WeatherDisplay:10.37,2014-08-27 08:14:00,
2014-08-27 04:19:00,71.8,61.1,30.15,West,270,3.8,3.8,69,0.00,OVC,,0.00,0.0,WeatherDisplay:10.37,2014-08-27 08:19:00,
2014-08-27 04:24:00,71.8,61.1,30.14,SW,225,4.6,4.6,69,0.00,OVC,,0.00,0.0,WeatherDisplay:10.37,2014-08-27 08:24:00,
2014-08-27 04:29:00,71.6,60.5,30.15,SW,225,3.8,3.8,68,0.00,OVC,,0.00,0.0,WeatherDisplay:10.37,2014-08-27 08:29:00,
2014-08-27 04:34:00,71.6,60.9,30.15,WSW,248,3.5,3.5,69,0.00,OVC,,0.00,0.0,WeatherDisplay:10.37,2014-08-27 08:34:00,
2014-08-27 04:39:00,71.4,60.7,30.15,WNW,292,3.5,3.5,69,0.00,OVC,,0.00,0.0,WeatherDisplay:10.37,2014-08-27 08:39:00,
2014-08-27 04:44:00,71.2,60.5,30.15,SW,225,4.6,4.6,69,0.00,OVC,,0.00,0.0,WeatherDisplay:10.37,2014-08-27 08:44:00,
2014-08-27 04:49:00,71.6,60.5,30.15,SSW,202,5.8,5.8,68,0.00,OVC,,0.00,0.0,WeatherDisplay:10.37,2014-08-27 08:49:00,
2014-08-27 04:54:00,71.6,60.5,30.15,SW,225,3.5,3.5,68,0.00,OVC,,0.00,0.0,WeatherDisplay:10.37,2014-08-27 08:54:00,
2014-08-27 04:59:00,71.6,60.5,30.15,SW,225,3.8,3.8,68,0.00,OVC,,0.00,0.0,WeatherDisplay:10.37,2014-08-27 08:59:00,
2014-08-27 05:04:00,71.8,60.6,30.14,South,180,4.6,4.6,68,0.00,OVC,,0.00,0.0,WeatherDisplay:10.37,2014-08-27 09:04:00,
2014-08-27 05:09:00,71.8,60.6,30.15,West,270,3.5,3.5,68,0.00,OVC,,0.00,0.0,WeatherDisplay:10.37,2014-08-27 09:09:00,
2014-08-27 05:14:00,71.6,60.5,30.15,SW,225,3.5,3.5,68,0.00,OVC,,0.00,0.0,WeatherDisplay:10.37,2014-08-27 09:14:00,
2014-08-27 05:19:00,71.6,60.5,30.15,SW,225,5.8,5.8,68,0.00,OVC,,0.00,0.0,WeatherDisplay:10.37,2014-08-27 09:19:00,
2014-08-27 05:24:00,71.4,60.3,30.15,West,270,4.6,4.6,68,0.00,OVC,,0.00,0.0,WeatherDisplay:10.37,2014-08-27 09:24:00,
2014-08-27 05:30:00,71.4,60.7,30.15,SW,225,3.5,3.5,69,0.00,OVC,,0.00,0.0,WeatherDisplay:10.37,2014-08-27 09:30:00,
2014-08-27 06:58:00,70.5,60.7,30.16,West,270,2.3,2.3,71,0.00,OVC,,0.00,0.0,WeatherDisplay:10.37,2014-08-27 10:58:00,
2014-08-27 07:03:00,70.5,60.7,30.16,SW,225,2.3,2.3,71,0.00,OVC,,0.00,0.0,WeatherDisplay:10.37,2014-08-27 11:03:00,
2014-08-27 07:08:00,70.3,60.9,30.16,WSW,248,3.8,3.8,72,0.00,OVC,,0.00,0.0,WeatherDisplay:10.37,2014-08-27 11:08:00,
2014-08-27 07:13:00,70.3,61.3,30.17,South,180,3.5,3.5,73,0.00,OVC,,0.00,0.0,WeatherDisplay:10.37,2014-08-27 11:13:00,
2014-08-27 07:18:00,70.7,61.6,30.17,WSW,248,4.6,4.6,73,0.00,OVC,,0.00,0.0,WeatherDisplay:10.37,2014-08-27 11:18:00,
2014-08-27 07:23:00,70.7,61.6,30.16,WSW,248,4.6,4.6,73,0.00,OVC,,0.00,0.0,WeatherDisplay:10.37,2014-08-27 11:23:00,
2014-08-27 07:28:00,71.4,61.5,30.16,SW,225,2.3,2.3,71,0.00,OVC,,0.00,0.0,WeatherDisplay:10.37,2014-08-27 11:28:00,
2014-08-27 07:33:00,71.8,61.9,30.16,SSW,202,3.5,3.5,71,0.00,OVC,,0.00,0.0,WeatherDisplay:10.37,2014-08-27 11:33:00,
2014-08-27 07:38:00,72.1,61.8,30.16,South,180,3.5,3.5,70,0.00,OVC,,0.00,0.0,WeatherDisplay:10.37,2014-08-27 11:38:00,
2014-08-27 07:43:00,72.5,61.7,30.16,SW,225,4.6,4.6,69,0.00,OVC,,0.00,0.0,WeatherDisplay:10.37,2014-08-27 11:43:00,
2014-08-27 07:48:00,72.9,61.7,30.16,SW,225,3.5,3.5,68,0.00,OVC,,0.00,0.0,WeatherDisplay:10.37,2014-08-27 11:48:00,
2014-08-27 07:53:00,73.0,61.9,30.16,South,180,2.3,2.3,68,0.00,OVC,,0.00,0.0,WeatherDisplay:10.37,2014-08-27 11:53:00,
2014-08-27 07:58:00,73.8,61.7,30.15,NNW,338,3.5,3.5,66,0.00,OVC,,0.00,0.0,WeatherDisplay:10.37,2014-08-27 11:58:00,
2014-08-27 08:03:00,73.9,61.9,30.16,West,270,3.5,3.5,66,0.00,OVC,,0.00,0.0,WeatherDisplay:10.37,2014-08-27 12:03:00,
2014-08-27 08:08:00,74.8,62.3,30.16,NW,315,3.5,0.0,65,0.00,OVC,,0.00,0.0,WeatherDisplay:10.37,2014-08-27 12:08:00,
2014-08-27 08:13:00,76.1,63.5,30.16,NE,45,1.2,0.0,65,0.00,OVC,,0.00,0.0,WeatherDisplay:10.37,2014-08-27 12:13:00,
2014-08-27 08:18:00,77.7,64.1,30.16,NE,45,1.2,0.0,63,0.00,OVC,,0.00,0.0,WeatherDisplay:10.37,2014-08-27 12:18:00,
2014-08-27 08:24:00,79.0,63.4,30.17,NW,315,1.2,0.0,59,0.00,OVC,,0.00,0.0,WeatherDisplay:10.37,2014-08-27 12:24:00,
2014-08-27 08:29:00,79.7,64.1,30.17,North,0,1.2,0.0,59,0.00,OVC,,0.00,0.0,WeatherDisplay:10.37,2014-08-27 12:29:00,
2014-08-27 08:34:00,80.1,62.4,30.16,West,270,4.6,4.6,55,0.00,OVC,,0.00,0.0,WeatherDisplay:10.37,2014-08-27 12:34:00,
2014-08-27 08:39:00,80.4,63.3,30.16,SW,225,2.3,2.3,56,0.00,OVC,,0.00,0.0,WeatherDisplay:10.37,2014-08-27 12:39:00,
2014-08-27 08:44:00,80.1,64.0,30.17,WNW,292,3.5,0.0,58,0.00,OVC,,0.00,0.0,WeatherDisplay:10.37,2014-08-27 12:44:00,
2014-08-27 08:49:00,80.2,63.6,30.17,West,270,3.5,3.5,57,0.00,OVC,,0.00,0.0,WeatherDisplay:10.37,2014-08-27 12:49:00,
2014-08-27 08:54:00,79.9,64.3,30.17,NW,315,3.5,3.5,59,0.00,OVC,,0.00,0.0,WeatherDisplay:10.37,2014-08-27 12:54:00,
2014-08-27 08:59:00,80.4,63.8,30.17,SW,225,3.5,0.0,57,0.00,OVC,,0.00,0.0,WeatherDisplay:10.37,2014-08-27 12:59:00,
2014-08-27 09:04:00,80.6,64.0,30.17,SW,225,2.3,2.3,57,0.00,OVC,,0.00,0.0,WeatherDisplay:10.37,2014-08-27 13:04:00,
2014-08-27 09:09:00,80.8,64.1,30.16,NW,315,5.8,5.8,57,0.00,OVC,,0.00,0.0,WeatherDisplay:10.37,2014-08-27 13:09:00,
2014-08-27 09:14:00,81.0,64.3,30.16,West,270,3.5,3.5,57,0.00,OVC,,0.00,0.0,WeatherDisplay:10.37,2014-08-27 13:14:00,
2014-08-27 09:19:00,81.5,64.8,30.16,NW,315,3.5,3.5,57,0.00,OVC,,0.00,0.0,WeatherDisplay:10.37,2014-08-27 13:19:00,
2014-08-27 09:24:00,81.5,64.8,30.16,West,270,3.5,3.5,57,0.00,OVC,,0.00,0.0,WeatherDisplay:10.37,2014-08-27 13:24:00,
2014-08-27 09:29:00,81.7,64.5,30.16,West,270,4.6,4.6,56,0.00,OVC,,0.00,0.0,WeatherDisplay:10.37,2014-08-27 13:29:00,
2014-08-27 09:34:00,81.9,64.6,30.17,NW,315,5.8,5.8,56,0.00,OVC,,0.00,0.0,WeatherDisplay:10.37,2014-08-27 13:34:00,
2014-08-27 09:39:00,81.7,65.0,30.16,NW,315,5.8,5.8,57,0.00,OVC,,0.00,0.0,WeatherDisplay:10.37,2014-08-27 13:39:00,
2014-08-27 09:44:00,82.4,66.1,30.16,North,0,3.5,3.5,58,0.00,OVC,,0.00,0.0,WeatherDisplay:10.37,2014-08-27 13:44:00,
2014-08-27 09:49:00,82.8,65.5,30.17,WNW,292,4.6,4.6,56,0.00,OVC,,0.00,0.0,WeatherDisplay:10.37,2014-08-27 13:49:00,
2014-08-27 09:54:00,82.8,65.5,30.16,West,270,8.1,8.1,56,0.00,OVC,,0.00,0.0,WeatherDisplay:10.37,2014-08-27 13:54:00,
2014-08-27 09:59:00,82.4,66.1,30.17,NW,315,3.5,3.5,58,0.00,OVC,,0.00,0.0,WeatherDisplay:10.37,2014-08-27 13:59:00,
2014-08-27 10:04:00,82.8,66.0,30.17,NW,315,4.6,4.6,57,0.00,OVC,,0.00,0.0,WeatherDisplay:10.37,2014-08-27 14:04:00,
2014-08-27 10:10:00,83.3,66.5,30.16,North,0,4.6,0.0,57,0.00,OVC,,0.00,0.0,WeatherDisplay:10.37,2014-08-27 14:10:00,
2014-08-27 10:15:00,83.5,66.6,30.16,SSE,158,6.9,6.9,57,0.00,OVC,,0.00,0.0,WeatherDisplay:10.37,2014-08-27 14:15:00,
2014-08-27 10:20:00,83.3,66.0,30.17,West,270,5.8,5.8,56,0.00,OVC,,0.00,0.0,WeatherDisplay:10.37,2014-08-27 14:20:00,
2014-08-27 10:25:00,83.1,67.3,30.17,NE,45,5.8,5.8,59,0.00,OVC,,0.00,0.0,WeatherDisplay:10.37,2014-08-27 14:25:00,
2014-08-27 10:30:00,84.2,66.8,30.16,NW,315,2.3,2.3,56,0.00,OVC,,0.00,0.0,WeatherDisplay:10.37,2014-08-27 14:30:00,
2014-08-27 10:35:00,85.3,67.3,30.16,East,90,3.5,3.5,55,0.00,OVC,,0.00,0.0,WeatherDisplay:10.37,2014-08-27 14:35:00,
2014-08-27 10:40:00,86.0,66.3,30.16,SW,225,3.5,3.5,52,0.00,OVC,,0.00,0.0,WeatherDisplay:10.37,2014-08-27 14:40:00,
2014-08-27 10:45:00,85.5,66.4,30.16,SE,135,3.5,0.0,53,0.00,OVC,,0.00,0.0,WeatherDisplay:10.37,2014-08-27 14:45:00,
2014-08-27 10:50:00,87.1,67.9,30.17,SW,225,2.3,0.0,53,0.00,OVC,,0.00,0.0,WeatherDisplay:10.37,2014-08-27 14:50:00,
2014-08-27 10:55:00,87.8,66.3,30.16,NW,315,3.5,3.5,49,0.00,OVC,,0.00,0.0,WeatherDisplay:10.37,2014-08-27 14:55:00,
2014-08-27 11:00:00,88.2,65.4,30.16,SW,225,5.8,5.8,47,0.00,OVC,,0.00,0.0,WeatherDisplay:10.37,2014-08-27 15:00:00,
2014-08-27 11:05:00,87.8,65.1,30.17,SSW,192,2.0,4.0,47,0.00,OVC,,0.00,0.0,WeatherDisplay:10.37,2014-08-27 15:05:00,
2014-08-27 11:10:00,87.8,68.0,30.17,NW,315,3.5,3.5,52,0.00,OVC,,0.00,0.0,WeatherDisplay:10.37,2014-08-27 15:10:00,
2014-08-27 11:15:00,88.5,67.5,30.16,WSW,249,0.0,4.0,50,0.00,OVC,,0.00,0.0,WeatherDisplay:10.37,2014-08-27 15:15:00,
2014-08-27 11:20:00,89.6,67.9,30.17,SW,225,3.5,3.5,49,0.00,OVC,,0.00,0.0,WeatherDisplay:10.37,2014-08-27 15:20:00,
2014-08-27 11:25:00,88.2,67.2,30.17,SW,236,0.0,5.0,50,0.00,OVC,,0.00,0.0,WeatherDisplay:10.37,2014-08-27 15:25:00,
2014-08-27 11:30:00,87.3,66.9,30.17,NW,315,4.6,4.6,51,0.00,OVC,,0.00,0.0,WeatherDisplay:10.37,2014-08-27 15:30:00,
2014-08-27 11:35:00,86.9,66.6,30.17,NW,315,5.8,5.8,51,0.00,OVC,,0.00,0.0,WeatherDisplay:10.37,2014-08-27 15:35:00,
2014-08-27 11:40:00,87.1,67.3,30.17,North,0,4.6,4.6,52,0.00,OVC,,0.00,0.0,WeatherDisplay:10.37,2014-08-27 15:40:00,
2014-08-27 11:45:00,86.9,67.7,30.17,NE,45,5.8,5.8,53,0.00,OVC,,0.00,0.0,WeatherDisplay:10.37,2014-08-27 15:45:00,
2014-08-27 11:50:00,86.5,68.5,30.17,NW,315,4.6,4.6,55,0.00,OVC,,0.00,0.0,WeatherDisplay:10.37,2014-08-27 15:50:00,
2014-08-27 11:55:00,86.7,68.1,30.17,SSW,202,4.6,4.6,54,0.00,OVC,,0.00,0.0,WeatherDisplay:10.37,2014-08-27 15:55:00,
2014-08-27 12:00:00,86.4,67.8,30.16,WSW,248,6.9,6.9,54,0.00,OVC,,0.00,0.0,WeatherDisplay:10.37,2014-08-27 16:00:00,
2014-08-27 12:05:00,86.5,69.0,30.17,West,270,1.2,1.2,56,0.00,OVC,,0.00,0.0,WeatherDisplay:10.37,2014-08-27 16:05:00,
2014-08-27 12:10:00,87.4,67.7,30.17,North,0,4.6,4.6,52,0.00,OVC,,0.00,0.0,WeatherDisplay:10.37,2014-08-27 16:10:00,
2014-08-27 12:15:00,86.4,67.2,30.17,SW,225,6.9,6.9,53,0.00,OVC,,0.00,0.0,WeatherDisplay:10.37,2014-08-27 16:15:00,
2014-08-27 12:20:00,86.5,67.9,30.17,East,90,3.5,0.0,54,0.00,OVC,,0.00,0.0,WeatherDisplay:10.37,2014-08-27 16:20:00,
2014-08-27 12:25:00,88.0,66.4,30.17,WNW,292,1.0,6.0,49,0.00,OVC,,0.00,0.0,WeatherDisplay:10.37,2014-08-27 16:25:00,
2014-08-27 12:30:00,87.6,67.3,30.16,SW,225,5.8,5.8,51,0.00,OVC,,0.00,0.0,WeatherDisplay:10.37,2014-08-27 16:30:00,
2014-08-27 12:35:00,87.6,67.3,30.17,NE,45,7.6,7.6,51,0.00,OVC,,0.00,0.0,WeatherDisplay:10.37,2014-08-27 16:35:00,
2014-08-27 12:40:00,86.5,66.8,30.16,NNE,24,1.0,8.0,52,0.00,OVC,,0.00,0.0,WeatherDisplay:10.37,2014-08-27 16:40:00,
2014-08-27 12:45:00,88.3,67.3,30.16,NE,40,1.0,5.0,50,0.00,OVC,,0.00,0.0,WeatherDisplay:10.37,2014-08-27 16:45:00,
2014-08-27 12:50:00,88.3,67.3,30.16,North,0,5.8,5.8,50,0.00,OVC,,0.00,0.0,WeatherDisplay:10.37,2014-08-27 16:50:00,
2014-08-27 12:55:00,87.6,68.4,30.16,NNW,346,3.0,8.0,53,0.00,OVC,,0.00,0.0,WeatherDisplay:10.37,2014-08-27 16:55:00,
2014-08-27 13:01:00,88.9,68.4,30.16,NE,45,3.5,0.0,51,0.00,CLR,,0.00,0.0,WeatherDisplay:10.37,2014-08-27 17:01:00,
2014-08-27 13:06:00,88.9,68.4,30.16,NE,45,1.2,0.0,51,0.00,CLR,,0.00,0.0,WeatherDisplay:10.37,2014-08-27 17:06:00,
2014-08-27 13:11:00,89.6,66.7,30.15,NW,315,4.6,4.6,47,0.00,CLR,,0.00,0.0,WeatherDisplay:10.37,2014-08-27 17:11:00,
2014-08-27 13:16:00,88.2,66.0,30.15,NE,45,3.5,3.5,48,0.00,CLR,,0.00,0.0,WeatherDisplay:10.37,2014-08-27 17:16:00,
2014-08-27 13:21:00,88.5,66.3,30.14,SE,135,4.6,4.6,48,0.00,CLR,,0.00,0.0,WeatherDisplay:10.37,2014-08-27 17:21:00,
2014-08-27 13:26:00,90.5,66.3,30.15,ESE,112,5.8,5.8,45,0.00,CLR,,0.00,0.0,WeatherDisplay:10.37,2014-08-27 17:26:00,
2014-08-27 13:31:00,92.1,65.7,30.14,NE,45,3.5,3.5,42,0.00,CLR,,0.00,0.0,WeatherDisplay:10.37,2014-08-27 17:31:00,
2014-08-27 13:36:00,93.0,64.4,30.14,East,90,3.5,3.5,39,0.00,CLR,,0.00,0.0,WeatherDisplay:10.37,2014-08-27 17:36:00,
2014-08-27 13:41:00,93.2,62.3,30.14,SW,225,3.5,3.5,36,0.00,CLR,,0.00,0.0,WeatherDisplay:10.37,2014-08-27 17:41:00,
2014-08-27 13:47:00,91.8,64.7,30.14,North,0,8.1,8.1,41,0.00,CLR,,0.00,0.0,WeatherDisplay:10.37,2014-08-27 17:47:00,
2014-08-27 13:53:00,91.9,64.9,30.14,North,0,3.5,3.5,41,0.00,CLR,,0.00,0.0,WeatherDisplay:10.37,2014-08-27 17:53:00,
2014-08-27 13:58:00,92.5,64.6,30.14,NE,45,5.8,5.8,40,0.00,CLR,,0.00,0.0,WeatherDisplay:10.37,2014-08-27 17:58:00,
2014-08-27 14:03:00,92.3,63.8,30.14,NE,45,5.8,5.8,39,0.00,CLR,,0.00,0.0,WeatherDisplay:10.37,2014-08-27 18:03:00,
2014-08-27 14:08:00,91.9,64.9,30.14,East,90,5.8,5.8,41,0.00,CLR,,0.00,0.0,WeatherDisplay:10.37,2014-08-27 18:08:00,
2014-08-27 14:13:00,92.5,65.4,30.14,East,90,3.5,3.5,41,0.00,CLR,,0.00,0.0,WeatherDisplay:10.37,2014-08-27 18:13:00,
2014-08-27 14:18:00,92.1,63.6,30.14,West,270,1.2,1.2,39,0.00,CLR,,0.00,0.0,WeatherDisplay:10.37,2014-08-27 18:18:00,
2014-08-27 14:23:00,91.2,64.2,30.14,NW,315,1.2,1.6,41,0.00,CLR,,0.00,0.0,WeatherDisplay:10.37,2014-08-27 18:23:00,
2014-08-27 14:28:00,91.2,64.2,30.13,NE,45,3.5,3.5,41,0.00,CLR,,0.00,0.0,WeatherDisplay:10.37,2014-08-27 18:28:00,
2014-08-27 14:33:00,92.7,64.1,30.13,North,0,3.5,3.5,39,0.00,CLR,,0.00,0.0,WeatherDisplay:10.37,2014-08-27 18:33:00,
2014-08-27 14:38:00,93.6,64.1,30.12,North,0,3.5,3.5,38,0.00,CLR,,0.00,0.0,WeatherDisplay:10.37,2014-08-27 18:38:00,
2014-08-27 14:43:00,93.9,62.1,30.13,North,0,3.5,3.5,35,0.00,CLR,,0.00,0.0,WeatherDisplay:10.37,2014-08-27 18:43:00,
2014-08-27 14:48:00,92.5,63.9,30.13,NE,45,3.5,3.5,39,0.00,CLR,,0.00,0.0,WeatherDisplay:10.37,2014-08-27 18:48:00,
2014-08-27 14:53:00,92.7,64.8,30.12,NE,45,5.8,5.8,40,0.00,CLR,,0.00,0.0,WeatherDisplay:10.37,2014-08-27 18:53:00,
2014-08-27 14:58:00,91.0,64.1,30.12,WNW,292,5.8,5.8,41,0.00,CLR,,0.00,0.0,WeatherDisplay:10.37,2014-08-27 18:58:00,
2014-08-27 15:03:00,90.5,63.6,30.11,NW,315,5.8,5.8,41,0.00,CLR,,0.00,0.0,WeatherDisplay:10.37,2014-08-27 19:03:00,
2014-08-27 15:08:00,90.5,64.3,30.12,NE,45,5.8,0.0,42,0.00,CLR,,0.00,0.0,WeatherDisplay:10.37,2014-08-27 19:08:00,
2014-08-27 15:13:00,92.8,65.7,30.12,NE,45,1.2,0.0,41,0.00,CLR,,0.00,0.0,WeatherDisplay:10.37,2014-08-27 19:13:00,
2014-08-27 15:18:00,92.3,63.0,30.11,West,270,5.8,5.8,38,0.00,CLR,,0.00,0.0,WeatherDisplay:10.37,2014-08-27 19:18:00,
2014-08-27 15:23:00,91.2,64.2,30.11,West,270,3.5,3.5,41,0.00,CLR,,0.00,0.0,WeatherDisplay:10.37,2014-08-27 19:23:00,
2014-08-27 15:28:00,91.6,63.8,30.11,NE,45,3.5,3.5,40,0.00,CLR,,0.00,0.0,WeatherDisplay:10.37,2014-08-27 19:28:00,
2014-08-27 15:33:00,91.8,64.0,30.11,NW,315,4.6,4.6,40,0.00,CLR,,0.00,0.0,WeatherDisplay:10.37,2014-08-27 19:33:00,
2014-08-27 15:38:00,90.7,63.7,30.11,North,0,5.8,5.8,41,0.00,CLR,,0.00,0.0,WeatherDisplay:10.37,2014-08-27 19:38:00,
2014-08-27 15:43:00,91.0,64.8,30.11,NNW,338,5.8,5.8,42,0.00,CLR,,0.00,0.0,WeatherDisplay:10.37,2014-08-27 19:43:00,
2014-08-27 15:49:00,91.2,63.5,30.11,NW,315,5.8,5.8,40,0.00,CLR,,0.00,0.0,WeatherDisplay:10.37,2014-08-27 19:49:00,
2014-08-27 15:54:00,92.1,63.6,30.11,NNE,22,5.8,5.8,39,0.00,CLR,,0.00,0.0,WeatherDisplay:10.37,2014-08-27 19:54:00,
2014-08-27 15:59:00,92.1,65.0,30.11,NE,45,5.8,5.8,41,0.00,CLR,,0.00,0.0,WeatherDisplay:10.37,2014-08-27 19:59:00,